Los Lunas, NM (87031)

3:21 AM MDT on July 26, 2016 (GMT -0600)
Los Lunas, NM | | Change Station

Elev 4839 ft 34.77 °N, 106.71 °W | Updated 55 seconds ago

Mostly Cloudy
Mostly Cloudy
72.9 °F
Feels Like 76 °F
N
3.7
Wind Variable Wind from WNW

Today
High -- | Low -- °F
--% Chance of Precip.
Yesterday
High -- | Low -- °F
Precip. -- in
Pressure 30.23 in
Visibility 10.0 miles
Clouds Mostly Cloudy 12000 ft
Heat Index 76 °F
Dew Point 58 °F
Humidity 60%
Rainfall 0.00 in
Snow Depth Not available.
6:12 AM 8:13 PM
Waning Gibbous, 56% visible
METAR KE80 260915Z AUTO 20011KT 10SM BKN120 23/12 A3023 RMK AO2 T02290121
Pressure 30.23 in
Visibility 10.0 miles
Clouds Mostly Cloudy 12000 ft
Heat Index 76 °F
Dew Point 58 °F
Humidity 60%
Rainfall 0.00 in
Snow Depth Not available.
6:12 AM 8:13 PM
Waning Gibbous, 56% visible
METAR KE80 260915Z AUTO 20011KT 10SM BKN120 23/12 A3023 RMK AO2 T02290121

10-Day Weather Forecast

Almanac

Astronomy

Jul. 26, 2016 Rise Set
Actual Time
Civil Twilight
Nautical Twilight
Astronomical Twilight
Moon
Length of Visible Light
Length of Day
Tomorrow will be .
, % of the Moon is Illuminated

Today's Extremes

State Highs State Lows

Community

WunderPhotos

Upload Photos

1,927,556 photos uploaded!

WunderBlog® & News

Nearby

Air Quality

  Air Quality AQ Index Pollutant
Not available.

Snow Depth

Station Depth Elevation

Earthquake Activity

City Distance Mag. Time & Date
Minimum magnitude displayed is 2.5.

Coastal Water Temperatures

Place Temperature

Stations

Nearby Weather Stations

Station Location Temp. Windchill Dew Point Humidity Wind Precip. Elev Updated Type
                   

Watches & Warnings

There are currently no watches in effect.